createdAt,value
2022-08-24T00:00:21.797Z,13.74
2022-08-24T00:01:21.805Z,13.73
2022-08-24T00:02:21.886Z,13.73
2022-08-24T00:03:21.837Z,13.73
2022-08-24T00:04:21.745Z,13.69
2022-08-24T00:05:21.747Z,13.67
2022-08-24T00:06:21.725Z,13.63
2022-08-24T00:07:27.871Z,13.63
2022-08-24T00:08:22.715Z,13.61
2022-08-24T00:09:21.695Z,13.61
2022-08-24T00:10:21.675Z,13.59
2022-08-24T00:11:21.674Z,13.61
2022-08-24T00:12:21.655Z,13.62
2022-08-24T00:13:21.675Z,13.62
2022-08-24T00:14:21.625Z,13.59
2022-08-24T00:15:21.631Z,13.58
2022-08-24T00:16:21.681Z,13.58
2022-08-24T00:17:21.594Z,13.56
2022-08-24T00:18:21.584Z,13.52
2022-08-24T00:19:21.592Z,13.51
2022-08-24T00:20:21.562Z,13.49
2022-08-24T00:21:21.555Z,13.47
2022-08-24T00:22:21.533Z,13.43
2022-08-24T00:23:21.524Z,13.40
2022-08-24T00:24:21.512Z,13.36
2022-08-24T00:25:21.514Z,13.33
2022-08-24T00:26:28.893Z,13.32
2022-08-24T00:27:22.518Z,13.29
2022-08-24T00:28:21.472Z,13.27
2022-08-24T00:29:21.453Z,13.21
2022-08-24T00:30:21.443Z,13.21
2022-08-24T00:31:21.486Z,13.18
2022-08-24T00:32:21.423Z,13.14
2022-08-24T00:33:21.412Z,13.14
2022-08-24T00:34:21.391Z,13.14
2022-08-24T00:35:21.391Z,13.12
2022-08-24T00:36:21.371Z,13.12
2022-08-24T00:37:21.371Z,13.12
2022-08-24T00:38:21.351Z,13.11
2022-08-24T00:39:21.341Z,13.11
2022-08-24T00:40:21.420Z,13.04
2022-08-24T00:41:21.321Z,13.03
2022-08-24T00:42:21.300Z,12.99
2022-08-24T00:43:21.310Z,12.97
2022-08-24T00:44:21.279Z,12.99
2022-08-24T00:45:21.343Z,12.97
2022-08-24T00:46:21.261Z,12.99
2022-08-24T00:47:21.250Z,12.97
2022-08-24T00:48:21.239Z,12.96
2022-08-24T00:49:21.229Z,13.00
2022-08-24T00:50:21.222Z,12.96
2022-08-24T00:51:21.206Z,12.96
2022-08-24T00:52:21.188Z,12.97
2022-08-24T00:53:21.208Z,12.99
2022-08-24T00:54:21.167Z,12.99
2022-08-24T00:55:21.159Z,13.02
2022-08-24T00:56:21.149Z,12.99
2022-08-24T00:57:21.136Z,12.97
2022-08-24T00:58:21.670Z,12.99
2022-08-24T00:59:21.110Z,12.97
2022-08-24T01:00:21.100Z,12.97
2022-08-24T01:01:21.134Z,12.99
2022-08-24T01:02:21.151Z,12.97
2022-08-24T01:03:21.066Z,12.99
2022-08-24T01:04:21.068Z,12.97
2022-08-24T01:05:21.067Z,12.96
2022-08-24T01:06:21.048Z,12.93
2022-08-24T01:07:21.016Z,12.93
2022-08-24T01:08:21.007Z,12.88
2022-08-24T01:09:20.995Z,12.92
2022-08-24T01:10:20.976Z,12.88
2022-08-24T01:11:20.977Z,12.85
2022-08-24T01:12:20.966Z,12.84
2022-08-24T01:13:20.948Z,12.82
2022-08-24T01:14:20.935Z,12.81
2022-08-24T01:15:20.925Z,12.78
2022-08-24T01:16:21.159Z,12.77
2022-08-24T01:17:20.902Z,12.77
2022-08-24T01:18:20.902Z,12.79
2022-08-24T01:19:20.884Z,12.78
2022-08-24T01:20:20.866Z,12.78
2022-08-24T01:21:20.865Z,12.79
2022-08-24T01:22:20.844Z,12.81
2022-08-24T01:23:20.834Z,12.78
2022-08-24T01:24:20.816Z,12.79
2022-08-24T01:25:20.814Z,12.79
2022-08-24T01:26:20.826Z,12.79
2022-08-24T01:27:20.990Z,12.79
2022-08-24T01:28:27.297Z,12.79
2022-08-24T01:29:23.585Z,12.78
2022-08-24T01:30:26.491Z,12.82
2022-08-24T01:31:21.788Z,12.79
2022-08-24T01:32:20.731Z,12.77
2022-08-24T01:33:20.713Z,12.77
2022-08-24T01:34:20.705Z,12.77
2022-08-24T01:35:20.702Z,12.74
2022-08-24T01:36:20.715Z,12.74
2022-08-24T01:37:21.681Z,12.74
2022-08-24T01:38:20.661Z,12.71
2022-08-24T01:39:20.642Z,12.74
2022-08-24T01:40:20.751Z,12.70
2022-08-24T01:41:20.622Z,12.74
2022-08-24T01:42:20.611Z,12.71
2022-08-24T01:43:20.602Z,12.70
2022-08-24T01:44:20.582Z,12.70
2022-08-24T01:45:20.571Z,12.67
2022-08-24T01:46:20.641Z,12.66
2022-08-24T01:47:20.580Z,12.64
2022-08-24T01:48:23.161Z,12.64
2022-08-24T01:49:20.550Z,12.64
2022-08-24T01:50:20.520Z,12.63
2022-08-24T01:51:20.500Z,12.64
2022-08-24T01:52:20.500Z,12.64
2022-08-24T01:53:20.481Z,12.63
2022-08-24T01:54:20.478Z,12.63
2022-08-24T01:55:22.672Z,12.64
2022-08-24T01:56:20.468Z,12.63
2022-08-24T01:57:20.451Z,12.63
2022-08-24T01:58:20.432Z,12.62
2022-08-24T01:59:20.410Z,12.62
2022-08-24T02:00:20.399Z,12.59
2022-08-24T02:01:20.452Z,12.57
2022-08-24T02:02:20.388Z,12.54
2022-08-24T02:03:20.431Z,12.54
2022-08-24T02:04:21.348Z,12.52
2022-08-24T02:05:20.340Z,12.56
2022-08-24T02:06:20.328Z,12.56
2022-08-24T02:07:20.328Z,12.56
2022-08-24T02:08:20.318Z,12.57
2022-08-24T02:09:20.302Z,12.57
2022-08-24T02:10:20.280Z,12.59
2022-08-24T02:11:20.275Z,12.59
2022-08-24T02:12:20.266Z,12.56
2022-08-24T02:13:20.257Z,12.56
2022-08-24T02:14:20.245Z,12.52
2022-08-24T02:15:20.224Z,12.52
2022-08-24T02:16:20.264Z,12.51
2022-08-24T02:17:20.211Z,12.52
2022-08-24T02:18:20.209Z,12.52
2022-08-24T02:19:20.177Z,12.51
2022-08-24T02:20:20.164Z,12.49
2022-08-24T02:21:20.151Z,12.48
2022-08-24T02:22:20.140Z,12.45
2022-08-24T02:23:20.130Z,12.42
2022-08-24T02:24:20.126Z,12.42
2022-08-24T02:25:20.105Z,12.41
2022-08-24T02:26:20.101Z,12.38
2022-08-24T02:27:20.084Z,12.41
2022-08-24T02:28:20.072Z,12.41
2022-08-24T02:29:20.066Z,12.38
2022-08-24T02:30:20.045Z,12.39
2022-08-24T02:31:20.077Z,12.38
2022-08-24T02:32:20.027Z,12.39
2022-08-24T02:33:20.004Z,12.38
2022-08-24T02:34:20.013Z,12.38
2022-08-24T02:35:19.994Z,12.37
2022-08-24T02:36:25.390Z,12.34
2022-08-24T02:37:20.956Z,12.33
2022-08-24T02:38:19.954Z,12.31
2022-08-24T02:39:19.933Z,12.31
2022-08-24T02:40:20.015Z,12.29
2022-08-24T02:41:19.934Z,12.31
2022-08-24T02:42:19.902Z,12.29
2022-08-24T02:43:19.888Z,12.30
2022-08-24T02:44:19.888Z,12.29
2022-08-24T02:45:19.866Z,12.27
2022-08-24T02:46:19.938Z,12.26
2022-08-24T02:47:19.843Z,12.26
2022-08-24T02:48:19.832Z,12.24
2022-08-24T02:49:19.820Z,12.24
2022-08-24T02:50:19.812Z,12.23
2022-08-24T02:51:19.801Z,12.24
2022-08-24T02:52:19.782Z,12.21
2022-08-24T02:53:19.771Z,12.21
2022-08-24T02:54:19.762Z,12.21
2022-08-24T02:55:20.203Z,12.21
2022-08-24T02:56:19.761Z,12.19
2022-08-24T02:57:19.722Z,12.16
2022-08-24T02:58:19.721Z,12.19
2022-08-24T02:59:19.701Z,12.16
2022-08-24T03:00:19.691Z,12.19
2022-08-24T03:01:24.148Z,12.19
2022-08-24T03:02:20.691Z,12.16
2022-08-24T03:03:19.659Z,12.15
2022-08-24T03:04:19.651Z,12.15
2022-08-24T03:05:19.633Z,12.15
2022-08-24T03:06:19.620Z,12.13
2022-08-24T03:07:19.618Z,12.13
2022-08-24T03:08:19.598Z,12.12
2022-08-24T03:09:19.579Z,12.11
2022-08-24T03:10:19.570Z,12.11
2022-08-24T03:11:19.559Z,12.11
2022-08-24T03:12:19.568Z,12.11
2022-08-24T03:13:19.530Z,12.09
2022-08-24T03:14:19.527Z,12.09
2022-08-24T03:15:19.515Z,12.12
2022-08-24T03:16:19.580Z,12.11
2022-08-24T03:17:19.488Z,12.08
2022-08-24T03:18:19.489Z,12.05
2022-08-24T03:19:20.457Z,12.05
2022-08-24T03:20:19.458Z,12.08
2022-08-24T03:21:19.437Z,12.06
2022-08-24T03:22:19.427Z,12.06
2022-08-24T03:23:19.435Z,12.06
2022-08-24T03:24:19.398Z,12.06
2022-08-24T03:25:19.396Z,12.06
2022-08-24T03:26:19.384Z,12.05
2022-08-24T03:27:19.376Z,12.04
2022-08-24T03:28:19.372Z,12.04
2022-08-24T03:29:19.357Z,12.04
2022-08-24T03:30:19.343Z,12.02
2022-08-24T03:31:19.331Z,12.01
2022-08-24T03:32:19.307Z,11.99
2022-08-24T03:33:19.314Z,11.96
2022-08-24T03:34:19.285Z,11.96
2022-08-24T03:35:19.284Z,11.93
2022-08-24T03:36:19.265Z,11.89
2022-08-24T03:37:19.255Z,11.87
2022-08-24T03:38:19.255Z,11.85
2022-08-24T03:39:19.234Z,11.86
2022-08-24T03:40:22.926Z,11.85
2022-08-24T03:41:20.204Z,11.87
2022-08-24T03:42:19.204Z,11.87
2022-08-24T03:43:19.186Z,11.87
2022-08-24T03:44:22.921Z,11.86
2022-08-24T03:45:19.174Z,11.86
2022-08-24T03:46:19.218Z,11.86
2022-08-24T03:47:19.145Z,11.85
2022-08-24T03:48:19.123Z,11.86
2022-08-24T03:49:19.121Z,11.86
2022-08-24T03:50:19.113Z,11.87
2022-08-24T03:51:19.093Z,11.86
2022-08-24T03:52:19.073Z,11.85
2022-08-24T03:53:19.073Z,11.83
2022-08-24T03:54:19.055Z,11.83
2022-08-24T03:55:19.052Z,11.80
2022-08-24T03:56:19.043Z,11.80
2022-08-24T03:57:19.032Z,11.82
2022-08-24T03:58:19.002Z,11.77
2022-08-24T03:59:20.146Z,11.80
2022-08-24T04:00:18.999Z,11.77
2022-08-24T04:01:19.000Z,11.75
2022-08-24T04:02:19.012Z,11.75
2022-08-24T04:03:18.953Z,11.75
2022-08-24T04:04:18.957Z,11.75
2022-08-24T04:05:18.941Z,11.74
2022-08-24T04:06:18.921Z,11.74
2022-08-24T04:07:18.910Z,11.74
2022-08-24T04:08:18.890Z,11.74
2022-08-24T04:09:18.881Z,11.71
2022-08-24T04:10:18.870Z,11.74
2022-08-24T04:11:18.873Z,11.74
2022-08-24T04:12:18.851Z,11.71
2022-08-24T04:13:18.839Z,11.71
2022-08-24T04:14:23.785Z,11.68
2022-08-24T04:15:19.829Z,11.68
2022-08-24T04:16:18.846Z,11.65
2022-08-24T04:17:18.799Z,11.67
2022-08-24T04:18:18.780Z,11.67
2022-08-24T04:19:18.768Z,11.64
2022-08-24T04:20:18.768Z,11.65
2022-08-24T04:21:18.768Z,11.64
2022-08-24T04:22:18.736Z,11.62
2022-08-24T04:23:18.730Z,11.62
2022-08-24T04:24:18.708Z,11.64
2022-08-24T04:25:21.719Z,11.62
2022-08-24T04:26:43.346Z,11.62
2022-08-24T04:27:19.677Z,11.61
2022-08-24T04:28:18.667Z,11.62
2022-08-24T04:29:18.657Z,11.59
2022-08-24T04:30:18.659Z,11.59
2022-08-24T04:31:18.669Z,11.57
2022-08-24T04:32:18.626Z,11.57
2022-08-24T04:33:18.607Z,11.56
2022-08-24T04:34:18.712Z,11.56
2022-08-24T04:35:18.588Z,11.54
2022-08-24T04:36:18.597Z,11.53
2022-08-24T04:37:18.563Z,11.53
2022-08-24T04:38:19.557Z,11.49
2022-08-24T04:39:18.547Z,11.47
2022-08-24T04:40:19.313Z,11.44
2022-08-24T04:41:18.527Z,11.43
2022-08-24T04:42:19.505Z,11.41
2022-08-24T04:43:19.976Z,11.39
2022-08-24T04:44:18.491Z,11.38
2022-08-24T04:45:18.761Z,11.38
2022-08-24T04:46:18.484Z,11.41
2022-08-24T04:47:18.452Z,11.38
2022-08-24T04:48:18.454Z,11.39
2022-08-24T04:49:18.435Z,11.39
2022-08-24T04:50:18.415Z,11.43
2022-08-24T04:51:18.405Z,11.44
2022-08-24T04:52:18.414Z,11.46
2022-08-24T04:53:18.383Z,11.46
2022-08-24T04:54:18.384Z,11.49
2022-08-24T04:55:18.354Z,11.46
2022-08-24T04:56:18.354Z,11.46
2022-08-24T04:57:18.684Z,11.46
2022-08-24T04:58:18.323Z,11.44
2022-08-24T04:59:18.312Z,11.36
2022-08-24T05:00:18.324Z,11.35
2022-08-24T05:01:18.362Z,11.36
2022-08-24T05:02:18.369Z,11.43
2022-08-24T05:03:18.273Z,11.46
2022-08-24T05:04:18.253Z,11.47
2022-08-24T05:05:18.242Z,11.52
2022-08-24T05:06:18.246Z,11.56
2022-08-24T05:07:18.220Z,11.59
2022-08-24T05:08:18.231Z,11.62
2022-08-24T05:09:18.200Z,11.67
2022-08-24T05:10:18.191Z,11.70
2022-08-24T05:11:18.171Z,11.72
2022-08-24T05:12:18.161Z,11.77
2022-08-24T05:13:18.152Z,11.77
2022-08-24T05:14:18.151Z,11.78
2022-08-24T05:15:18.128Z,11.78
2022-08-24T05:16:18.225Z,11.80
2022-08-24T05:17:18.101Z,11.82
2022-08-24T05:18:18.099Z,11.83
2022-08-24T05:19:18.091Z,11.83
2022-08-24T05:20:18.070Z,11.86
2022-08-24T05:21:18.076Z,11.85
2022-08-24T05:22:18.051Z,11.83
2022-08-24T05:23:18.038Z,11.83
2022-08-24T05:24:18.039Z,11.86
2022-08-24T05:25:18.010Z,11.89
2022-08-24T05:26:18.009Z,11.93
2022-08-24T05:27:19.092Z,11.96
2022-08-24T05:28:17.986Z,12.04
2022-08-24T05:29:17.966Z,12.05
2022-08-24T05:30:17.979Z,12.08
2022-08-24T05:31:17.964Z,12.13
2022-08-24T05:32:17.928Z,12.19
2022-08-24T05:33:17.921Z,12.23
2022-08-24T05:34:17.915Z,12.26
2022-08-24T05:35:17.900Z,12.30
2022-08-24T05:36:17.897Z,12.39
2022-08-24T05:37:17.867Z,12.41
2022-08-24T05:38:17.864Z,12.48
2022-08-24T05:39:17.846Z,12.52
2022-08-24T05:40:17.899Z,12.56
2022-08-24T05:41:17.835Z,12.63
2022-08-24T05:42:17.816Z,12.67
2022-08-24T05:43:17.806Z,12.71
2022-08-24T05:44:17.797Z,12.78
2022-08-24T05:45:17.785Z,12.81
2022-08-24T05:46:17.816Z,12.87
2022-08-24T05:47:17.754Z,12.92
2022-08-24T05:48:17.752Z,13.00
2022-08-24T05:49:17.735Z,13.04
2022-08-24T05:50:17.745Z,13.11
2022-08-24T05:51:17.704Z,13.15
2022-08-24T05:52:17.695Z,13.21
2022-08-24T05:53:17.684Z,13.25
2022-08-24T05:54:17.675Z,13.32
2022-08-24T05:55:17.654Z,13.38
2022-08-24T05:56:17.664Z,13.44
2022-08-24T05:57:17.704Z,13.51
2022-08-24T05:58:22.936Z,13.56
2022-08-24T05:59:18.615Z,13.61
2022-08-24T06:00:17.611Z,13.67
2022-08-24T06:01:17.605Z,13.71
2022-08-24T06:02:17.702Z,13.77
2022-08-24T06:03:17.631Z,13.84
2022-08-24T06:04:17.563Z,13.89
2022-08-24T06:05:17.544Z,13.94
2022-08-24T06:06:17.544Z,13.99
2022-08-24T06:07:17.523Z,14.06
2022-08-24T06:08:17.512Z,14.10
2022-08-24T06:09:17.502Z,14.14
2022-08-24T06:10:35.763Z,14.20
2022-08-24T06:11:18.489Z,14.20
2022-08-24T06:12:17.482Z,14.27
2022-08-24T06:13:17.462Z,14.31
2022-08-24T06:14:17.450Z,14.38
2022-08-24T06:15:17.423Z,14.43
2022-08-24T06:16:21.827Z,14.46
2022-08-24T06:17:17.516Z,14.50
2022-08-24T06:18:17.434Z,14.57
2022-08-24T06:19:17.382Z,14.64
2022-08-24T06:20:17.371Z,14.69
2022-08-24T06:21:17.361Z,14.74
2022-08-24T06:22:17.350Z,14.83
2022-08-24T06:23:17.332Z,14.87
2022-08-24T06:24:17.340Z,14.93
2022-08-24T06:25:17.311Z,14.98
2022-08-24T06:26:21.289Z,15.03
2022-08-24T06:27:18.290Z,15.06
2022-08-24T06:28:17.290Z,15.11
2022-08-24T06:29:17.269Z,15.17
2022-08-24T06:30:17.259Z,15.20
2022-08-24T06:31:17.310Z,15.30
2022-08-24T06:32:17.237Z,15.33
2022-08-24T06:33:17.229Z,15.38
2022-08-24T06:34:17.209Z,15.42
2022-08-24T06:35:17.189Z,15.46
2022-08-24T06:36:17.191Z,15.49
2022-08-24T06:37:18.169Z,15.57
2022-08-24T06:38:17.386Z,15.64
2022-08-24T06:39:17.150Z,15.67
2022-08-24T06:40:17.198Z,15.72
2022-08-24T06:41:17.129Z,15.78
2022-08-24T06:42:17.117Z,15.81
2022-08-24T06:43:17.120Z,15.85
2022-08-24T06:44:17.099Z,15.92
2022-08-24T06:45:17.078Z,15.94
2022-08-24T06:46:19.834Z,16.00
2022-08-24T06:47:18.055Z,16.07
2022-08-24T06:48:17.048Z,16.14
2022-08-24T06:49:17.038Z,16.23
2022-08-24T06:50:17.038Z,16.27
2022-08-24T06:51:17.013Z,16.34
2022-08-24T06:52:16.997Z,16.37
2022-08-24T06:53:16.989Z,16.42
2022-08-24T06:54:16.988Z,16.48
2022-08-24T06:55:16.976Z,16.52
2022-08-24T06:56:16.959Z,16.58
2022-08-24T06:57:16.937Z,16.63
2022-08-24T06:58:16.927Z,16.71
2022-08-24T06:59:16.916Z,16.74
2022-08-24T07:00:16.917Z,16.77
2022-08-24T07:01:16.920Z,16.81
2022-08-24T07:02:16.886Z,16.86
2022-08-24T07:03:16.932Z,16.89
2022-08-24T07:04:16.864Z,16.93
2022-08-24T07:05:16.868Z,16.96
2022-08-24T07:06:16.839Z,17.00
2022-08-24T07:07:16.826Z,17.07
2022-08-24T07:08:16.820Z,17.13
2022-08-24T07:09:16.828Z,17.15
2022-08-24T07:10:16.812Z,17.22
2022-08-24T07:11:17.781Z,17.25
2022-08-24T07:12:16.780Z,17.28
2022-08-24T07:13:16.758Z,17.30
2022-08-24T07:14:17.694Z,17.36
2022-08-24T07:15:16.766Z,17.41
2022-08-24T07:16:16.796Z,17.46
2022-08-24T07:17:16.708Z,17.50
2022-08-24T07:18:16.700Z,17.53
2022-08-24T07:19:16.685Z,17.57
2022-08-24T07:20:16.675Z,17.63
2022-08-24T07:21:16.656Z,17.64
2022-08-24T07:22:16.664Z,17.70
2022-08-24T07:23:16.636Z,17.70
2022-08-24T07:24:16.625Z,17.69
2022-08-24T07:25:16.625Z,17.71
2022-08-24T07:26:21.253Z,17.74
2022-08-24T07:27:17.593Z,17.81
2022-08-24T07:28:16.575Z,17.82
2022-08-24T07:29:44.086Z,17.87
2022-08-24T07:30:27.095Z,17.89
2022-08-24T07:31:17.714Z,17.92
2022-08-24T07:32:16.536Z,17.95
2022-08-24T07:33:16.528Z,17.95
2022-08-24T07:34:16.504Z,17.99
2022-08-24T07:35:16.496Z,18.04
2022-08-24T07:36:17.027Z,18.06
2022-08-24T07:37:17.484Z,18.12
2022-08-24T07:38:16.563Z,18.15
2022-08-24T07:39:16.452Z,18.21
2022-08-24T07:40:16.491Z,18.22
2022-08-24T07:42:26.922Z,18.28
2022-08-24T07:43:17.403Z,18.31
2022-08-24T07:44:16.404Z,18.34
2022-08-24T07:45:16.375Z,18.36
2022-08-24T07:46:16.412Z,18.40
2022-08-24T07:48:17.369Z,18.44
2022-08-24T07:49:37.206Z,18.50
2022-08-24T07:50:17.324Z,18.54
2022-08-24T07:51:16.312Z,18.61
2022-08-24T07:52:16.305Z,18.64
2022-08-24T07:53:20.687Z,18.67
2022-08-24T07:54:16.274Z,18.70
2022-08-24T07:55:16.264Z,18.73
2022-08-24T07:56:16.253Z,18.77
2022-08-24T07:57:16.242Z,18.83
2022-08-24T07:58:16.367Z,18.87
2022-08-24T07:59:16.222Z,18.91
2022-08-24T08:00:16.222Z,18.94
2022-08-24T08:01:16.221Z,18.98
2022-08-24T08:02:16.236Z,19.02
2022-08-24T08:03:16.215Z,19.06
2022-08-24T08:04:16.181Z,19.13
2022-08-24T08:05:16.151Z,19.15
2022-08-24T08:06:16.568Z,19.20
2022-08-24T08:07:16.132Z,19.24
2022-08-24T08:08:16.118Z,19.28
2022-08-24T08:09:16.122Z,19.31
2022-08-24T08:10:16.111Z,19.36
2022-08-24T08:11:16.082Z,19.42
2022-08-24T08:12:16.072Z,19.47
2022-08-24T08:13:16.051Z,19.48
2022-08-24T08:14:16.052Z,19.50
2022-08-24T08:15:16.033Z,19.58
2022-08-24T08:16:16.050Z,19.61
2022-08-24T08:17:16.018Z,19.65
2022-08-24T08:18:16.001Z,19.72
2022-08-24T08:19:15.997Z,19.79
2022-08-24T08:20:18.815Z,19.84
2022-08-24T08:21:15.961Z,19.87
2022-08-24T08:22:15.962Z,19.88
2022-08-24T08:23:15.940Z,19.94
2022-08-24T08:24:15.983Z,19.95
2022-08-24T08:25:15.952Z,19.98
2022-08-24T08:26:15.911Z,20.03
2022-08-24T08:27:15.910Z,20.02
2022-08-24T08:28:25.110Z,20.06
2022-08-24T08:29:16.871Z,20.09
2022-08-24T08:30:15.876Z,20.13
2022-08-24T08:31:15.909Z,20.15
2022-08-24T08:32:15.841Z,20.15
2022-08-24T08:33:15.874Z,20.16
2022-08-24T08:34:15.840Z,20.20
2022-08-24T08:35:15.821Z,20.21
2022-08-24T08:36:15.799Z,20.23
2022-08-24T08:37:15.791Z,20.25
2022-08-24T08:38:15.768Z,20.25
2022-08-24T08:39:15.761Z,20.28
2022-08-24T08:40:15.807Z,20.27
2022-08-24T08:41:15.740Z,20.27
2022-08-24T08:42:15.749Z,20.28
2022-08-24T08:43:15.710Z,20.33
2022-08-24T08:44:15.697Z,20.35
2022-08-24T08:45:15.687Z,20.42
2022-08-24T08:46:15.713Z,20.46
2022-08-24T08:47:15.661Z,20.50
2022-08-24T08:48:15.664Z,20.53
2022-08-24T08:49:15.630Z,20.59
2022-08-24T08:50:15.630Z,20.64
2022-08-24T08:51:15.626Z,20.66
2022-08-24T08:52:15.619Z,20.74
2022-08-24T08:53:15.588Z,20.79
2022-08-24T08:54:15.588Z,20.81
2022-08-24T08:55:15.569Z,20.87
2022-08-24T08:56:15.558Z,20.93
2022-08-24T08:57:15.547Z,20.99
2022-08-24T08:58:15.559Z,21.04
2022-08-24T08:59:15.519Z,21.09
2022-08-24T09:00:16.060Z,21.13
2022-08-24T09:01:15.596Z,21.17
2022-08-24T09:02:15.518Z,21.20
2022-08-24T09:03:15.490Z,21.27
2022-08-24T09:04:21.413Z,21.32
2022-08-24T09:05:16.448Z,21.36
2022-08-24T09:06:15.442Z,21.39
2022-08-24T09:07:15.439Z,21.39
2022-08-24T09:08:15.497Z,21.41
2022-08-24T09:09:15.409Z,21.46
2022-08-24T09:10:15.410Z,21.46
2022-08-24T09:11:15.387Z,21.51
2022-08-24T09:12:15.368Z,21.59
2022-08-24T09:13:15.358Z,21.60
2022-08-24T09:14:15.345Z,21.66
2022-08-24T09:15:15.338Z,21.69
2022-08-24T09:16:15.498Z,21.74
2022-08-24T09:17:15.357Z,21.78
2022-08-24T09:18:15.299Z,21.88
2022-08-24T09:19:15.313Z,21.92
2022-08-24T09:20:15.279Z,21.98
2022-08-24T09:21:15.266Z,22.01
2022-08-24T09:22:15.282Z,22.10
2022-08-24T09:23:15.241Z,22.17
2022-08-24T09:24:15.227Z,22.22
2022-08-24T09:25:15.218Z,22.28
2022-08-24T09:26:18.998Z,22.35
2022-08-24T09:27:15.197Z,22.39
2022-08-24T09:28:15.197Z,22.44
2022-08-24T09:29:15.180Z,22.49
2022-08-24T09:30:15.168Z,22.54
2022-08-24T09:31:15.892Z,22.57
2022-08-24T09:32:18.067Z,22.60
2022-08-24T09:33:15.139Z,22.64
2022-08-24T09:34:15.119Z,22.67
2022-08-24T09:35:26.557Z,22.69
2022-08-24T09:36:16.097Z,22.71
2022-08-24T09:37:15.086Z,22.72
2022-08-24T09:38:15.081Z,22.72
2022-08-24T09:39:15.056Z,22.75
2022-08-24T09:40:15.102Z,22.78
2022-08-24T09:41:15.027Z,22.80
2022-08-24T09:42:15.017Z,22.84
2022-08-24T09:43:15.028Z,22.83
2022-08-24T09:44:15.008Z,22.84
2022-08-24T09:45:14.986Z,22.87
2022-08-24T09:46:15.020Z,22.93
2022-08-24T09:47:14.969Z,22.96
2022-08-24T09:48:15.654Z,22.97
2022-08-24T09:49:15.200Z,23.01
2022-08-24T09:50:14.938Z,23.05
2022-08-24T09:51:14.915Z,23.11
2022-08-24T09:52:14.908Z,23.14
2022-08-24T09:53:14.887Z,23.15
2022-08-24T09:54:14.878Z,23.20
2022-08-24T09:55:14.876Z,23.23
2022-08-24T09:56:14.882Z,23.24
2022-08-24T09:57:18.270Z,23.26
2022-08-24T09:58:15.839Z,23.31
2022-08-24T09:59:14.868Z,23.39
2022-08-24T10:00:14.824Z,23.43
2022-08-24T10:01:14.845Z,23.46
2022-08-24T10:02:14.798Z,23.45
2022-08-24T10:03:14.776Z,23.43
2022-08-24T10:04:14.765Z,23.47
2022-08-24T10:05:15.072Z,23.57
2022-08-24T10:06:14.889Z,23.60
2022-08-24T10:07:14.725Z,23.61
2022-08-24T10:08:14.718Z,23.64
2022-08-24T10:09:14.705Z,23.67
2022-08-24T10:10:14.723Z,23.71
2022-08-24T10:11:14.694Z,23.72
2022-08-24T10:12:14.683Z,23.72
2022-08-24T10:13:14.658Z,23.79
2022-08-24T10:14:14.647Z,23.82
2022-08-24T10:15:14.636Z,23.86
2022-08-24T10:16:14.689Z,23.90
2022-08-24T10:17:14.626Z,23.94
2022-08-24T10:18:14.606Z,24.00
2022-08-24T10:19:14.586Z,24.02
2022-08-24T10:20:14.575Z,24.02
2022-08-24T10:21:14.564Z,24.07
2022-08-24T10:22:14.556Z,24.08
2022-08-24T10:23:14.554Z,24.12
2022-08-24T10:24:14.538Z,24.17
2022-08-24T10:25:14.515Z,24.22
2022-08-24T10:26:14.505Z,24.20
2022-08-24T10:27:14.515Z,24.20
2022-08-24T10:28:14.485Z,24.23
2022-08-24T10:29:14.475Z,24.22
2022-08-24T10:30:14.485Z,24.26
2022-08-24T10:31:14.495Z,24.34
2022-08-24T10:32:14.445Z,24.35
2022-08-24T10:33:14.445Z,24.38
2022-08-24T10:34:14.416Z,24.39
2022-08-24T10:35:14.405Z,24.37
2022-08-24T10:36:14.489Z,24.41
2022-08-24T10:37:14.385Z,24.39
2022-08-24T10:38:14.376Z,24.41
2022-08-24T10:39:14.366Z,24.47
2022-08-24T10:40:14.359Z,24.52
2022-08-24T10:41:14.343Z,24.59
2022-08-24T10:42:14.323Z,24.63
2022-08-24T10:43:14.316Z,24.71
2022-08-24T10:44:14.324Z,24.76
2022-08-24T10:45:14.317Z,24.82
2022-08-24T10:46:14.317Z,24.91
2022-08-24T10:47:14.305Z,24.98
2022-08-24T10:48:14.254Z,25.02
2022-08-24T10:49:14.244Z,25.02
2022-08-24T10:50:14.324Z,25.07
2022-08-24T10:51:14.221Z,25.13
2022-08-24T10:52:14.204Z,25.13
2022-08-24T10:53:14.194Z,25.13
2022-08-24T10:54:14.185Z,25.17
2022-08-24T10:55:14.194Z,25.19
2022-08-24T10:56:14.187Z,25.27
2022-08-24T10:57:15.182Z,25.30
2022-08-24T10:58:14.146Z,25.31
2022-08-24T10:59:14.128Z,25.37
2022-08-24T11:00:22.609Z,25.38
2022-08-24T11:01:15.406Z,25.43
2022-08-24T11:02:14.126Z,25.46
2022-08-24T11:03:14.084Z,25.46
2022-08-24T11:04:14.072Z,25.44
2022-08-24T11:05:14.064Z,25.46
2022-08-24T11:06:14.045Z,25.50
2022-08-24T11:07:14.054Z,25.54
2022-08-24T11:08:14.025Z,25.59
2022-08-24T11:09:18.809Z,25.64
2022-08-24T11:10:14.997Z,25.71
2022-08-24T11:11:14.003Z,25.75
2022-08-24T11:12:13.984Z,25.75
2022-08-24T11:13:14.024Z,25.75
2022-08-24T11:14:13.955Z,25.80
2022-08-24T11:15:13.954Z,25.83
2022-08-24T11:16:13.981Z,25.80
2022-08-24T11:17:13.922Z,25.83
2022-08-24T11:18:13.930Z,25.89
2022-08-24T11:19:13.920Z,25.91
2022-08-24T11:20:13.894Z,25.98
2022-08-24T11:21:13.884Z,25.99
2022-08-24T11:22:13.870Z,26.04
2022-08-24T11:23:13.855Z,26.09
2022-08-24T11:24:13.833Z,26.11
2022-08-24T11:25:13.841Z,26.09
2022-08-24T11:26:13.815Z,26.11
2022-08-24T11:27:13.803Z,26.17
2022-08-24T11:28:13.794Z,26.22
2022-08-24T11:29:13.784Z,26.27
2022-08-24T11:30:13.766Z,26.22
2022-08-24T11:31:13.828Z,26.24
2022-08-24T11:32:13.745Z,26.25
2022-08-24T11:33:13.734Z,26.25
2022-08-24T11:34:13.726Z,26.24
2022-08-24T11:35:13.713Z,26.25
2022-08-24T11:36:13.694Z,26.29
2022-08-24T11:37:14.702Z,26.31
2022-08-24T11:38:13.721Z,26.31
2022-08-24T11:39:13.663Z,26.29
2022-08-24T11:40:13.765Z,26.25
2022-08-24T11:41:13.644Z,26.27
2022-08-24T11:42:13.625Z,26.29
2022-08-24T11:43:13.634Z,26.29
2022-08-24T11:44:13.604Z,26.36
2022-08-24T11:45:13.594Z,26.42
2022-08-24T11:46:13.684Z,26.44
2022-08-24T11:47:13.574Z,26.47
2022-08-24T11:48:14.573Z,26.49
2022-08-24T11:49:13.572Z,26.52
2022-08-24T11:50:13.535Z,26.55
2022-08-24T11:51:13.525Z,26.54
2022-08-24T11:52:13.513Z,26.47
2022-08-24T11:53:13.503Z,26.52
2022-08-24T11:54:13.495Z,26.55
2022-08-24T11:55:13.484Z,26.57
2022-08-24T11:56:15.343Z,26.54
2022-08-24T11:57:13.454Z,26.50
2022-08-24T11:58:13.444Z,26.49
2022-08-24T11:59:13.454Z,26.47
2022-08-24T12:00:13.430Z,26.49
2022-08-24T12:01:13.431Z,26.46
2022-08-24T12:02:13.470Z,26.49
2022-08-24T12:03:13.482Z,26.49
2022-08-24T12:04:13.374Z,26.47
2022-08-24T12:05:16.280Z,26.47
2022-08-24T12:06:13.354Z,26.40
2022-08-24T12:07:13.343Z,26.42
2022-08-24T12:08:13.338Z,26.40
2022-08-24T12:09:13.313Z,26.40
2022-08-24T12:10:13.313Z,26.39
2022-08-24T12:11:13.315Z,26.36
2022-08-24T12:12:13.283Z,26.32
2022-08-24T12:13:13.273Z,26.32
2022-08-24T12:14:13.264Z,26.31
2022-08-24T12:15:13.245Z,26.31
2022-08-24T12:16:13.308Z,26.31
2022-08-24T12:17:13.253Z,26.28
2022-08-24T12:18:13.223Z,26.25
2022-08-24T12:19:13.205Z,26.18
2022-08-24T12:20:13.197Z,26.17
2022-08-24T12:21:13.193Z,26.15
2022-08-24T12:22:13.183Z,26.09
2022-08-24T12:23:13.172Z,26.04
2022-08-24T12:24:13.148Z,26.01
2022-08-24T12:25:13.135Z,25.97
2022-08-24T12:26:13.134Z,25.90
2022-08-24T12:27:13.133Z,25.91
2022-08-24T12:28:13.103Z,25.89
2022-08-24T12:29:13.104Z,25.89
2022-08-24T12:30:13.073Z,25.89
2022-08-24T12:31:13.115Z,25.90
2022-08-24T12:32:13.053Z,25.90
2022-08-24T12:33:13.052Z,25.91
2022-08-24T12:34:13.034Z,25.91
2022-08-24T12:35:13.016Z,25.90
2022-08-24T12:36:13.004Z,25.93
2022-08-24T12:37:16.244Z,25.86
2022-08-24T12:38:12.994Z,25.82
2022-08-24T12:39:13.826Z,25.77
2022-08-24T12:40:12.985Z,25.68
2022-08-24T12:41:17.679Z,25.65
2022-08-24T12:42:17.055Z,25.64
2022-08-24T12:43:12.939Z,25.65
2022-08-24T12:44:12.924Z,25.64
2022-08-24T12:45:12.895Z,25.65
2022-08-24T12:46:12.996Z,25.64
2022-08-24T12:47:13.454Z,25.65
2022-08-24T12:48:12.873Z,25.65
2022-08-24T12:49:12.863Z,25.67
2022-08-24T12:50:12.844Z,25.67
2022-08-24T12:51:12.833Z,25.64
2022-08-24T12:52:12.825Z,25.65
2022-08-24T12:53:13.589Z,25.65
2022-08-24T12:54:12.824Z,25.62